Minerva Zen — SVBN3 — position and weather

sailwx.info

Track history (hours):
 
Tides and Currents Weather Stations Pressure Air Temp Water Temp Dewpoint Dewpoint Depression Visibility Wind Speed Wind Dir Waves Ship Positions

Minerva Zen

Last reported at 2016-Apr-29 06:33 UTC. Time now 2016-Apr-29 08:12 UTC.
Position N 36°48' E 017°21'.

Length 183 m; draft 7.2 m.

Type: Ship. MMSI: 241190000.

Date/timePositionNaut miles runAvg speedWind from/ knotsBaromVisibWave heightAir tempDewpointWater temp
2016-Apr-29 06:33N 36°48' E 017°21'1514.9
2016-Apr-29 05:33N 36°51' E 017°40'3514.8
2016-Apr-29 03:12N 36°58' E 018°22'1015.0
2016-Apr-29 02:31N 37°01' E 018°34'137 9.5
2016-Apr-28 12:05N 37°38' E 021°21'44 3.5
2016-Apr-27 23:23N 37°41' E 020°25'911.0
2016-Apr-27 22:33N 37°47' E 020°17'3410.7
2016-Apr-27 19:23N 38°15' E 019°52'2110.8
2016-Apr-27 17:26N 38°35' E 019°44'  
2016-Apr-23 03:10N 44°30' E 012°29'0 0.0
2016-Apr-22 22:28N 44°30' E 012°28'0 0.1
2016-Apr-22 21:28N 44°30' E 012°28'0 0.0
2016-Apr-22 20:22N 44°30' E 012°28'0 0.0
2016-Apr-22 19:31N 44°30' E 012°28'0 0.0
2016-Apr-22 18:31N 44°30' E 012°28'0 0.0
2016-Apr-22 17:31N 44°30' E 012°28'0 0.0
2016-Apr-22 16:31N 44°30' E 012°28'0 0.0
2016-Apr-22 15:28N 44°30' E 012°28'0 0.0
2016-Apr-22 14:31N 44°30' E 012°28'0 0.1
2016-Apr-22 13:25N 44°30' E 012°28'0 0.1
2016-Apr-22 12:31N 44°30' E 012°28'0 0.1
2016-Apr-22 11:31N 44°30' E 012°28'0 0.0
2016-Apr-22 10:31N 44°30' E 012°28'0 0.1
2016-Apr-22 09:31N 44°30' E 012°28'0 0.0
2016-Apr-22 08:31N 44°30' E 012°28'0 0.0
2016-Apr-22 07:31N 44°30' E 012°28'0 0.0
2016-Apr-22 06:28N 44°30' E 012°28'0 0.0
2016-Apr-22 05:31N 44°30' E 012°28'0 0.1
2016-Apr-22 04:31N 44°30' E 012°28'0 0.1
2016-Apr-22 03:19N 44°30' E 012°28'0 0.1
2016-Apr-22 02:25N 44°30' E 012°29'0 0.0
2016-Apr-22 00:28N 44°30' E 012°29'0 0.0
2016-Apr-21 23:31N 44°30' E 012°29'0 0.0
2016-Apr-21 22:31N 44°30' E 012°29'0 0.1
2016-Apr-21 21:31N 44°30' E 012°28'0 0.0
2016-Apr-21 20:33N 44°30' E 012°28'1 0.5
2016-Apr-21 19:33N 44°30' E 012°29'8 7.8
2016-Apr-21 18:33N 44°28' E 012°40'1413.5
2016-Apr-21 17:33N 44°23' E 012°57'1413.6
2016-Apr-21 16:33N 44°17' E 013°14'436 9.7
2016-Apr-19 19:23N 37°29' E 016°38'1213.2
2016-Apr-19 18:30N 37°19' E 016°29'2613.2
2016-Apr-19 16:31N 36°57' E 016°11'3712.3
2016-Apr-19 13:31N 36°29' E 015°41'1612.4
2016-Apr-19 12:14N 36°25' E 015°22'811.1
2016-Apr-19 11:33N 36°23' E 015°13'2511.5
2016-Apr-19 09:21N 36°27' E 014°42'1012.2
2016-Apr-19 08:33N 36°30' E 014°30'1212.1
2016-Apr-19 07:33N 36°34' E 014°16'1212.2
2016-Apr-19 06:33N 36°37' E 014°02'  
Track history (hours):
 
Tides and Currents Weather Stations Pressure Air Temp Water Temp Dewpoint Dewpoint Depression Visibility Wind Speed Wind Dir Waves Ship Positions

Minerva Zen

Last reported at 2016-Apr-29 06:33 UTC. Time now 2016-Apr-29 08:12 UTC.
Position N 36°48' E 017°21'.

Length 183 m; draft 7.2 m.

Type: Ship. MMSI: 241190000.

Date/timePositionNaut miles runAvg speedWind from/ knotsBaromVisibWave heightAir tempDewpointWater temp
2016-Apr-29 06:33N 36°48' E 017°21'1514.9
2016-Apr-29 05:33N 36°51' E 017°40'3514.8
2016-Apr-29 03:12N 36°58' E 018°22'1015.0
2016-Apr-29 02:31N 37°01' E 018°34'137 9.5
2016-Apr-28 12:05N 37°38' E 021°21'44 3.5
2016-Apr-27 23:23N 37°41' E 020°25'911.0
2016-Apr-27 22:33N 37°47' E 020°17'3410.7
2016-Apr-27 19:23N 38°15' E 019°52'2110.8
2016-Apr-27 17:26N 38°35' E 019°44'  
2016-Apr-23 03:10N 44°30' E 012°29'0 0.0
2016-Apr-22 22:28N 44°30' E 012°28'0 0.1
2016-Apr-22 21:28N 44°30' E 012°28'0 0.0
2016-Apr-22 20:22N 44°30' E 012°28'0 0.0
2016-Apr-22 19:31N 44°30' E 012°28'0 0.0
2016-Apr-22 18:31N 44°30' E 012°28'0 0.0
2016-Apr-22 17:31N 44°30' E 012°28'0 0.0
2016-Apr-22 16:31N 44°30' E 012°28'0 0.0
2016-Apr-22 15:28N 44°30' E 012°28'0 0.0
2016-Apr-22 14:31N 44°30' E 012°28'0 0.1
2016-Apr-22 13:25N 44°30' E 012°28'0 0.1
2016-Apr-22 12:31N 44°30' E 012°28'0 0.1
2016-Apr-22 11:31N 44°30' E 012°28'0 0.0
2016-Apr-22 10:31N 44°30' E 012°28'0 0.1
2016-Apr-22 09:31N 44°30' E 012°28'0 0.0
2016-Apr-22 08:31N 44°30' E 012°28'0 0.0
2016-Apr-22 07:31N 44°30' E 012°28'0 0.0
2016-Apr-22 06:28N 44°30' E 012°28'0 0.0
2016-Apr-22 05:31N 44°30' E 012°28'0 0.1
2016-Apr-22 04:31N 44°30' E 012°28'0 0.1
2016-Apr-22 03:19N 44°30' E 012°28'0 0.1
2016-Apr-22 02:25N 44°30' E 012°29'0 0.0
2016-Apr-22 00:28N 44°30' E 012°29'0 0.0
2016-Apr-21 23:31N 44°30' E 012°29'0 0.0
2016-Apr-21 22:31N 44°30' E 012°29'0 0.1
2016-Apr-21 21:31N 44°30' E 012°28'0 0.0
2016-Apr-21 20:33N 44°30' E 012°28'1 0.5
2016-Apr-21 19:33N 44°30' E 012°29'8 7.8
2016-Apr-21 18:33N 44°28' E 012°40'1413.5
2016-Apr-21 17:33N 44°23' E 012°57'1413.6
2016-Apr-21 16:33N 44°17' E 013°14'436 9.7
2016-Apr-19 19:23N 37°29' E 016°38'1213.2
2016-Apr-19 18:30N 37°19' E 016°29'2613.2
2016-Apr-19 16:31N 36°57' E 016°11'3712.3
2016-Apr-19 13:31N 36°29' E 015°41'1612.4
2016-Apr-19 12:14N 36°25' E 015°22'811.1
2016-Apr-19 11:33N 36°23' E 015°13'2511.5
2016-Apr-19 09:21N 36°27' E 014°42'1012.2
2016-Apr-19 08:33N 36°30' E 014°30'1212.1
2016-Apr-19 07:33N 36°34' E 014°16'1212.2
2016-Apr-19 06:33N 36°37' E 014°02'  

Dump ship's entire track history